sensor_id;sensor_type;location;lat;lon;timestamp;temperature;humidity
15543;DHT22;7873;52.230;12.856;2022-07-10T00:02:11;23.90;51.50
15543;DHT22;7873;52.230;12.856;2022-07-10T00:04:37;23.90;51.50
15543;DHT22;7873;52.230;12.856;2022-07-10T00:07:04;23.90;51.40
15543;DHT22;7873;52.230;12.856;2022-07-10T00:09:32;23.90;51.20
15543;DHT22;7873;52.230;12.856;2022-07-10T00:11:59;24.00;51.20
15543;DHT22;7873;52.230;12.856;2022-07-10T00:14:26;24.00;51.10
15543;DHT22;7873;52.230;12.856;2022-07-10T00:16:53;23.90;51.30
15543;DHT22;7873;52.230;12.856;2022-07-10T00:19:20;23.90;51.20
15543;DHT22;7873;52.230;12.856;2022-07-10T00:21:46;23.80;51.30
15543;DHT22;7873;52.230;12.856;2022-07-10T00:24:13;23.90;51.10
15543;DHT22;7873;52.230;12.856;2022-07-10T00:26:41;23.90;51.10
15543;DHT22;7873;52.230;12.856;2022-07-10T00:29:08;23.90;51.00
15543;DHT22;7873;52.230;12.856;2022-07-10T00:31:35;24.00;51.00
15543;DHT22;7873;52.230;12.856;2022-07-10T00:34:01;24.00;51.00
15543;DHT22;7873;52.230;12.856;2022-07-10T00:36:28;24.10;50.90
15543;DHT22;7873;52.230;12.856;2022-07-10T00:38:55;24.00;50.70
15543;DHT22;7873;52.230;12.856;2022-07-10T00:41:21;24.10;50.60
15543;DHT22;7873;52.230;12.856;2022-07-10T00:43:53;24.10;50.40
15543;DHT22;7873;52.230;12.856;2022-07-10T00:46:22;24.10;50.50
15543;DHT22;7873;52.230;12.856;2022-07-10T00:48:49;24.10;50.50
15543;DHT22;7873;52.230;12.856;2022-07-10T00:51:16;24.20;50.00
15543;DHT22;7873;52.230;12.856;2022-07-10T00:53:44;24.30;49.80
15543;DHT22;7873;52.230;12.856;2022-07-10T00:56:12;24.30;49.10
15543;DHT22;7873;52.230;12.856;2022-07-10T00:58:42;24.30;49.80
15543;DHT22;7873;52.230;12.856;2022-07-10T01:01:11;24.30;49.70
15543;DHT22;7873;52.230;12.856;2022-07-10T01:03:37;24.30;49.80
15543;DHT22;7873;52.230;12.856;2022-07-10T01:06:04;24.30;49.80
15543;DHT22;7873;52.230;12.856;2022-07-10T01:08:32;24.30;49.90
15543;DHT22;7873;52.230;12.856;2022-07-10T01:10:59;24.30;49.70
15543;DHT22;7873;52.230;12.856;2022-07-10T01:13:26;24.30;49.70
15543;DHT22;7873;52.230;12.856;2022-07-10T01:15:53;24.30;49.70
15543;DHT22;7873;52.230;12.856;2022-07-10T01:18:21;24.30;49.70
15543;DHT22;7873;52.230;12.856;2022-07-10T01:20:52;24.30;49.70
15543;DHT22;7873;52.230;12.856;2022-07-10T01:23:18;24.30;50.40
15543;DHT22;7873;52.230;12.856;2022-07-10T01:25:45;24.20;49.70
15543;DHT22;7873;52.230;12.856;2022-07-10T01:28:12;24.20;49.70
15543;DHT22;7873;52.230;12.856;2022-07-10T01:30:38;24.30;49.70
15543;DHT22;7873;52.230;12.856;2022-07-10T01:33:05;24.20;49.60
15543;DHT22;7873;52.230;12.856;2022-07-10T01:35:32;24.20;49.70
15543;DHT22;7873;52.230;12.856;2022-07-10T01:38:00;24.20;49.60
15543;DHT22;7873;52.230;12.856;2022-07-10T01:40:27;24.30;49.70
15543;DHT22;7873;52.230;12.856;2022-07-10T01:42:53;24.20;49.60
15543;DHT22;7873;52.230;12.856;2022-07-10T01:45:20;24.20;49.60
15543;DHT22;7873;52.230;12.856;2022-07-10T01:47:47;24.20;49.60
15543;DHT22;7873;52.230;12.856;2022-07-10T01:50:13;24.20;49.60
15543;DHT22;7873;52.230;12.856;2022-07-10T01:52:40;24.20;49.60
15543;DHT22;7873;52.230;12.856;2022-07-10T01:55:08;24.20;49.60
15543;DHT22;7873;52.230;12.856;2022-07-10T01:57:35;24.20;49.60
15543;DHT22;7873;52.230;12.856;2022-07-10T02:00:02;24.20;49.50
15543;DHT22;7873;52.230;12.856;2022-07-10T02:02:30;24.20;49.60
15543;DHT22;7873;52.230;12.856;2022-07-10T02:04:57;24.20;49.60
15543;DHT22;7873;52.230;12.856;2022-07-10T02:07:22;24.20;49.50
15543;DHT22;7873;52.230;12.856;2022-07-10T02:09:51;24.20;49.50
15543;DHT22;7873;52.230;12.856;2022-07-10T02:12:19;24.20;49.50
15543;DHT22;7873;52.230;12.856;2022-07-10T02:14:46;24.20;49.50
15543;DHT22;7873;52.230;12.856;2022-07-10T02:17:12;24.20;49.50
15543;DHT22;7873;52.230;12.856;2022-07-10T02:19:41;24.20;49.50
15543;DHT22;7873;52.230;12.856;2022-07-10T02:22:08;24.20;49.50
15543;DHT22;7873;52.230;12.856;2022-07-10T02:24:34;24.20;49.50
15543;DHT22;7873;52.230;12.856;2022-07-10T02:27:01;24.20;49.50
15543;DHT22;7873;52.230;12.856;2022-07-10T02:29:29;24.20;49.50
15543;DHT22;7873;52.230;12.856;2022-07-10T02:31:56;24.20;49.50
15543;DHT22;7873;52.230;12.856;2022-07-10T02:34:23;24.10;49.50
15543;DHT22;7873;52.230;12.856;2022-07-10T02:36:49;24.10;49.50
15543;DHT22;7873;52.230;12.856;2022-07-10T02:39:16;24.10;49.50
15543;DHT22;7873;52.230;12.856;2022-07-10T02:41:44;24.10;49.50
15543;DHT22;7873;52.230;12.856;2022-07-10T02:44:10;24.10;49.50
15543;DHT22;7873;52.230;12.856;2022-07-10T02:46:39;24.20;49.50
15543;DHT22;7873;52.230;12.856;2022-07-10T02:49:05;24.10;49.40
15543;DHT22;7873;52.230;12.856;2022-07-10T02:51:32;24.10;49.40
15543;DHT22;7873;52.230;12.856;2022-07-10T02:53:59;24.10;49.40
15543;DHT22;7873;52.230;12.856;2022-07-10T02:56:25;24.20;49.40
15543;DHT22;7873;52.230;12.856;2022-07-10T02:58:52;24.10;49.40
15543;DHT22;7873;52.230;12.856;2022-07-10T03:01:19;24.20;49.30
15543;DHT22;7873;52.230;12.856;2022-07-10T03:03:47;24.20;49.30
15543;DHT22;7873;52.230;12.856;2022-07-10T03:06:14;24.10;49.40
15543;DHT22;7873;52.230;12.856;2022-07-10T03:08:40;24.10;49.30
15543;DHT22;7873;52.230;12.856;2022-07-10T03:11:07;24.10;49.30
15543;DHT22;7873;52.230;12.856;2022-07-10T03:13:34;24.10;49.30
15543;DHT22;7873;52.230;12.856;2022-07-10T03:16:01;24.10;49.40
15543;DHT22;7873;52.230;12.856;2022-07-10T03:18:28;24.10;49.30
15543;DHT22;7873;52.230;12.856;2022-07-10T03:20:56;24.10;49.30
15543;DHT22;7873;52.230;12.856;2022-07-10T03:23:22;24.10;49.20
15543;DHT22;7873;52.230;12.856;2022-07-10T03:25:49;24.10;49.20
15543;DHT22;7873;52.230;12.856;2022-07-10T03:28:16;24.10;50.00
15543;DHT22;7873;52.230;12.856;2022-07-10T03:30:42;24.10;49.30
15543;DHT22;7873;52.230;12.856;2022-07-10T03:33:09;24.10;49.20
15543;DHT22;7873;52.230;12.856;2022-07-10T03:35:36;24.10;49.20
15543;DHT22;7873;52.230;12.856;2022-07-10T03:38:04;24.10;49.30
15543;DHT22;7873;52.230;12.856;2022-07-10T03:40:31;24.10;49.20
15543;DHT22;7873;52.230;12.856;2022-07-10T03:42:58;24.10;49.20
15543;DHT22;7873;52.230;12.856;2022-07-10T03:45:25;24.10;49.20
15543;DHT22;7873;52.230;12.856;2022-07-10T03:47:52;24.10;49.20
15543;DHT22;7873;52.230;12.856;2022-07-10T03:50:19;24.20;49.20
15543;DHT22;7873;52.230;12.856;2022-07-10T03:52:46;24.10;49.10
15543;DHT22;7873;52.230;12.856;2022-07-10T03:55:14;24.10;49.20
15543;DHT22;7873;52.230;12.856;2022-07-10T03:57:40;24.10;49.20
15543;DHT22;7873;52.230;12.856;2022-07-10T04:00:23;24.10;49.20
15543;DHT22;7873;52.230;12.856;2022-07-10T04:02:54;24.10;49.20
15543;DHT22;7873;52.230;12.856;2022-07-10T04:05:21;24.10;49.10
15543;DHT22;7873;52.230;12.856;2022-07-10T04:07:48;24.10;49.20
15543;DHT22;7873;52.230;12.856;2022-07-10T04:10:16;24.10;49.10
15543;DHT22;7873;52.230;12.856;2022-07-10T04:12:43;24.10;49.10
15543;DHT22;7873;52.230;12.856;2022-07-10T04:15:10;24.10;49.10
15543;DHT22;7873;52.230;12.856;2022-07-10T04:17:37;24.10;49.10
15543;DHT22;7873;52.230;12.856;2022-07-10T04:20:04;24.10;49.10
15543;DHT22;7873;52.230;12.856;2022-07-10T04:22:32;24.10;49.10
15543;DHT22;7873;52.230;12.856;2022-07-10T04:24:59;24.10;49.10
15543;DHT22;7873;52.230;12.856;2022-07-10T04:27:27;24.10;49.10
15543;DHT22;7873;52.230;12.856;2022-07-10T04:29:54;24.00;49.10
15543;DHT22;7873;52.230;12.856;2022-07-10T04:32:20;24.10;49.10
15543;DHT22;7873;52.230;12.856;2022-07-10T04:34:47;24.10;49.10
15543;DHT22;7873;52.230;12.856;2022-07-10T04:37:14;24.10;49.80
15543;DHT22;7873;52.230;12.856;2022-07-10T04:39:41;24.10;49.10
15543;DHT22;7873;52.230;12.856;2022-07-10T04:42:08;24.10;49.10
15543;DHT22;7873;52.230;12.856;2022-07-10T04:44:36;24.10;49.10
15543;DHT22;7873;52.230;12.856;2022-07-10T04:47:04;24.00;49.00
15543;DHT22;7873;52.230;12.856;2022-07-10T04:49:32;24.00;49.10
15543;DHT22;7873;52.230;12.856;2022-07-10T04:51:59;24.00;49.10
15543;DHT22;7873;52.230;12.856;2022-07-10T04:54:25;24.00;49.10
15543;DHT22;7873;52.230;12.856;2022-07-10T04:56:52;24.00;49.10
15543;DHT22;7873;52.230;12.856;2022-07-10T04:59:19;24.00;49.00
15543;DHT22;7873;52.230;12.856;2022-07-10T05:01:47;24.00;49.00
15543;DHT22;7873;52.230;12.856;2022-07-10T05:04:13;24.10;49.10
15543;DHT22;7873;52.230;12.856;2022-07-10T05:06:40;24.10;49.10
15543;DHT22;7873;52.230;12.856;2022-07-10T05:09:07;24.00;49.00
15543;DHT22;7873;52.230;12.856;2022-07-10T05:11:33;24.00;49.00
15543;DHT22;7873;52.230;12.856;2022-07-10T05:14:00;24.00;49.00
15543;DHT22;7873;52.230;12.856;2022-07-10T05:16:27;24.00;49.00
15543;DHT22;7873;52.230;12.856;2022-07-10T05:18:55;24.00;49.00
15543;DHT22;7873;52.230;12.856;2022-07-10T05:21:22;24.00;49.00
15543;DHT22;7873;52.230;12.856;2022-07-10T05:23:50;24.00;49.00
15543;DHT22;7873;52.230;12.856;2022-07-10T05:26:17;24.00;49.00
15543;DHT22;7873;52.230;12.856;2022-07-10T05:28:43;24.00;49.00
15543;DHT22;7873;52.230;12.856;2022-07-10T05:31:10;24.00;49.00
15543;DHT22;7873;52.230;12.856;2022-07-10T05:33:37;24.00;49.00
15543;DHT22;7873;52.230;12.856;2022-07-10T05:36:07;24.00;49.00
15543;DHT22;7873;52.230;12.856;2022-07-10T05:38:34;24.00;49.00
15543;DHT22;7873;52.230;12.856;2022-07-10T05:41:01;24.00;49.10
15543;DHT22;7873;52.230;12.856;2022-07-10T05:43:27;24.10;49.10
15543;DHT22;7873;52.230;12.856;2022-07-10T05:45:55;24.20;49.00
15543;DHT22;7873;52.230;12.856;2022-07-10T05:48:22;24.20;48.70
15543;DHT22;7873;52.230;12.856;2022-07-10T05:50:48;24.30;48.20
15543;DHT22;7873;52.230;12.856;2022-07-10T05:53:16;24.20;48.50
15543;DHT22;7873;52.230;12.856;2022-07-10T05:55:45;24.00;48.50
15543;DHT22;7873;52.230;12.856;2022-07-10T05:58:12;23.80;49.00
15543;DHT22;7873;52.230;12.856;2022-07-10T06:00:39;23.90;48.30
15543;DHT22;7873;52.230;12.856;2022-07-10T06:03:08;23.60;48.50
15543;DHT22;7873;52.230;12.856;2022-07-10T06:05:34;23.50;49.80
15543;DHT22;7873;52.230;12.856;2022-07-10T06:08:01;23.80;50.30
15543;DHT22;7873;52.230;12.856;2022-07-10T06:10:30;23.90;50.00
15543;DHT22;7873;52.230;12.856;2022-07-10T06:12:56;23.90;49.80
15543;DHT22;7873;52.230;12.856;2022-07-10T06:15:23;23.90;49.80
15543;DHT22;7873;52.230;12.856;2022-07-10T06:17:50;24.00;49.90
15543;DHT22;7873;52.230;12.856;2022-07-10T06:20:16;23.90;50.00
15543;DHT22;7873;52.230;12.856;2022-07-10T06:22:43;24.10;50.00
15543;DHT22;7873;52.230;12.856;2022-07-10T06:25:10;24.10;49.80
15543;DHT22;7873;52.230;12.856;2022-07-10T06:27:39;24.20;50.20
15543;DHT22;7873;52.230;12.856;2022-07-10T06:30:06;24.20;50.50
15543;DHT22;7873;52.230;12.856;2022-07-10T06:32:33;24.30;50.20
15543;DHT22;7873;52.230;12.856;2022-07-10T06:35:00;24.20;50.40
15543;DHT22;7873;52.230;12.856;2022-07-10T06:37:27;24.20;50.70
15543;DHT22;7873;52.230;12.856;2022-07-10T06:39:53;24.30;50.70
15543;DHT22;7873;52.230;12.856;2022-07-10T06:42:20;24.30;50.70
15543;DHT22;7873;52.230;12.856;2022-07-10T06:44:48;24.30;50.70
15543;DHT22;7873;52.230;12.856;2022-07-10T06:47:16;24.30;51.00
15543;DHT22;7873;52.230;12.856;2022-07-10T06:50:02;24.20;50.90
15543;DHT22;7873;52.230;12.856;2022-07-10T06:52:30;24.20;50.90
15543;DHT22;7873;52.230;12.856;2022-07-10T06:54:57;24.00;50.50
15543;DHT22;7873;52.230;12.856;2022-07-10T06:57:24;23.80;51.40
15543;DHT22;7873;52.230;12.856;2022-07-10T06:59:52;23.80;51.00
15543;DHT22;7873;52.230;12.856;2022-07-10T07:02:19;23.90;51.10
15543;DHT22;7873;52.230;12.856;2022-07-10T07:04:46;24.00;49.20
15543;DHT22;7873;52.230;12.856;2022-07-10T07:07:12;24.10;49.40
15543;DHT22;7873;52.230;12.856;2022-07-10T07:09:40;24.30;49.50
15543;DHT22;7873;52.230;12.856;2022-07-10T07:12:08;24.30;48.60
15543;DHT22;7873;52.230;12.856;2022-07-10T07:14:35;24.30;48.30
15543;DHT22;7873;52.230;12.856;2022-07-10T07:17:05;24.30;48.90
15543;DHT22;7873;52.230;12.856;2022-07-10T07:19:34;24.30;48.50
15543;DHT22;7873;52.230;12.856;2022-07-10T07:22:15;24.30;48.40
15543;DHT22;7873;52.230;12.856;2022-07-10T07:24:59;24.40;48.00
15543;DHT22;7873;52.230;12.856;2022-07-10T07:27:25;24.30;45.80
15543;DHT22;7873;52.230;12.856;2022-07-10T07:29:52;24.20;45.60
15543;DHT22;7873;52.230;12.856;2022-07-10T07:32:20;24.00;45.50
15543;DHT22;7873;52.230;12.856;2022-07-10T07:34:47;24.10;46.10
15543;DHT22;7873;52.230;12.856;2022-07-10T07:37:14;24.10;45.20
15543;DHT22;7873;52.230;12.856;2022-07-10T07:39:40;24.10;45.40
15543;DHT22;7873;52.230;12.856;2022-07-10T07:42:07;24.20;45.20
15543;DHT22;7873;52.230;12.856;2022-07-10T07:44:34;24.10;45.00
15543;DHT22;7873;52.230;12.856;2022-07-10T07:47:00;24.00;45.60
15543;DHT22;7873;52.230;12.856;2022-07-10T07:49:28;23.60;46.20
15543;DHT22;7873;52.230;12.856;2022-07-10T07:51:55;23.60;47.00
15543;DHT22;7873;52.230;12.856;2022-07-10T07:54:22;23.60;47.20
15543;DHT22;7873;52.230;12.856;2022-07-10T07:56:48;23.70;47.30
15543;DHT22;7873;52.230;12.856;2022-07-10T07:59:15;23.70;47.30
15543;DHT22;7873;52.230;12.856;2022-07-10T08:01:42;23.60;47.50
15543;DHT22;7873;52.230;12.856;2022-07-10T08:04:08;23.60;47.70
15543;DHT22;7873;52.230;12.856;2022-07-10T08:06:36;23.70;47.90
15543;DHT22;7873;52.230;12.856;2022-07-10T08:09:03;23.80;47.70
15543;DHT22;7873;52.230;12.856;2022-07-10T08:11:30;23.80;48.30
15543;DHT22;7873;52.230;12.856;2022-07-10T08:13:57;23.90;48.40
15543;DHT22;7873;52.230;12.856;2022-07-10T08:16:23;23.90;48.30
15543;DHT22;7873;52.230;12.856;2022-07-10T08:18:50;24.00;48.40
15543;DHT22;7873;52.230;12.856;2022-07-10T08:21:17;24.10;47.70
15543;DHT22;7873;52.230;12.856;2022-07-10T08:23:45;24.10;47.10
15543;DHT22;7873;52.230;12.856;2022-07-10T08:26:12;23.90;47.70
15543;DHT22;7873;52.230;12.856;2022-07-10T08:28:38;23.80;48.50
15543;DHT22;7873;52.230;12.856;2022-07-10T08:31:05;23.80;48.70
15543;DHT22;7873;52.230;12.856;2022-07-10T08:33:32;23.90;48.40
15543;DHT22;7873;52.230;12.856;2022-07-10T08:35:59;24.00;48.20
15543;DHT22;7873;52.230;12.856;2022-07-10T08:38:25;24.20;47.40
15543;DHT22;7873;52.230;12.856;2022-07-10T08:40:54;24.20;46.90
15543;DHT22;7873;52.230;12.856;2022-07-10T08:43:23;24.20;47.30
15543;DHT22;7873;52.230;12.856;2022-07-10T08:45:50;24.10;47.40
15543;DHT22;7873;52.230;12.856;2022-07-10T08:48:21;23.80;48.50
15543;DHT22;7873;52.230;12.856;2022-07-10T08:50:51;23.80;48.50
15543;DHT22;7873;52.230;12.856;2022-07-10T08:53:22;23.90;48.10
15543;DHT22;7873;52.230;12.856;2022-07-10T08:55:52;24.20;47.80
15543;DHT22;7873;52.230;12.856;2022-07-10T08:58:20;24.20;47.40
15543;DHT22;7873;52.230;12.856;2022-07-10T09:00:48;24.10;47.00
15543;DHT22;7873;52.230;12.856;2022-07-10T09:03:15;24.00;47.00
15543;DHT22;7873;52.230;12.856;2022-07-10T09:05:43;23.80;48.20
15543;DHT22;7873;52.230;12.856;2022-07-10T09:08:22;23.60;48.60
15543;DHT22;7873;52.230;12.856;2022-07-10T09:10:50;23.60;48.90
15543;DHT22;7873;52.230;12.856;2022-07-10T09:13:17;23.60;48.90
15543;DHT22;7873;52.230;12.856;2022-07-10T09:15:49;23.60;49.00
15543;DHT22;7873;52.230;12.856;2022-07-10T09:18:18;23.70;49.00
15543;DHT22;7873;52.230;12.856;2022-07-10T09:20:50;23.60;49.20
15543;DHT22;7873;52.230;12.856;2022-07-10T09:23:17;23.80;49.10
15543;DHT22;7873;52.230;12.856;2022-07-10T09:25:45;23.90;48.90
15543;DHT22;7873;52.230;12.856;2022-07-10T09:28:15;24.00;49.00
15543;DHT22;7873;52.230;12.856;2022-07-10T09:30:44;24.00;49.30
15543;DHT22;7873;52.230;12.856;2022-07-10T09:33:19;23.90;49.40
15543;DHT22;7873;52.230;12.856;2022-07-10T09:35:57;23.80;49.70
15543;DHT22;7873;52.230;12.856;2022-07-10T09:38:40;23.70;50.50
15543;DHT22;7873;52.230;12.856;2022-07-10T09:41:20;23.80;49.70
15543;DHT22;7873;52.230;12.856;2022-07-10T09:43:51;24.00;49.00
15543;DHT22;7873;52.230;12.856;2022-07-10T09:46:20;24.00;49.00
15543;DHT22;7873;52.230;12.856;2022-07-10T09:48:49;24.00;49.40
15543;DHT22;7873;52.230;12.856;2022-07-10T09:51:27;23.90;49.70
15543;DHT22;7873;52.230;12.856;2022-07-10T09:53:56;23.80;49.70
15543;DHT22;7873;52.230;12.856;2022-07-10T09:56:26;23.90;49.70
15543;DHT22;7873;52.230;12.856;2022-07-10T09:58:58;23.80;49.90
15543;DHT22;7873;52.230;12.856;2022-07-10T10:01:27;23.80;50.00
15543;DHT22;7873;52.230;12.856;2022-07-10T10:03:55;23.70;50.00
15543;DHT22;7873;52.230;12.856;2022-07-10T10:06:26;23.80;49.90
15543;DHT22;7873;52.230;12.856;2022-07-10T10:08:55;23.80;49.60
15543;DHT22;7873;52.230;12.856;2022-07-10T10:11:26;23.70;50.00
15543;DHT22;7873;52.230;12.856;2022-07-10T10:13:53;23.80;50.00
15543;DHT22;7873;52.230;12.856;2022-07-10T10:16:20;23.90;49.90
15543;DHT22;7873;52.230;12.856;2022-07-10T10:18:48;23.90;49.50
15543;DHT22;7873;52.230;12.856;2022-07-10T10:21:35;24.00;49.20
15543;DHT22;7873;52.230;12.856;2022-07-10T10:24:02;23.70;45.70
15543;DHT22;7873;52.230;12.856;2022-07-10T10:26:29;23.50;46.00
15543;DHT22;7873;52.230;12.856;2022-07-10T10:28:57;23.50;47.40
15543;DHT22;7873;52.230;12.856;2022-07-10T10:31:25;23.60;48.80
15543;DHT22;7873;52.230;12.856;2022-07-10T10:33:54;23.70;49.10
15543;DHT22;7873;52.230;12.856;2022-07-10T10:39:12;23.60;48.80
15543;DHT22;7873;52.230;12.856;2022-07-10T10:41:42;23.60;47.30
15543;DHT22;7873;52.230;12.856;2022-07-10T10:44:27;23.70;49.00
15543;DHT22;7873;52.230;12.856;2022-07-10T10:47:02;23.80;49.10
15543;DHT22;7873;52.230;12.856;2022-07-10T10:49:50;24.00;48.70
15543;DHT22;7873;52.230;12.856;2022-07-10T10:52:20;23.90;49.70
15543;DHT22;7873;52.230;12.856;2022-07-10T10:55:01;23.80;50.70
15543;DHT22;7873;52.230;12.856;2022-07-10T10:57:37;23.80;51.30
15543;DHT22;7873;52.230;12.856;2022-07-10T11:00:11;23.90;53.20
15543;DHT22;7873;52.230;12.856;2022-07-10T11:02:40;23.90;53.30
15543;DHT22;7873;52.230;12.856;2022-07-10T11:08:09;24.00;52.20
15543;DHT22;7873;52.230;12.856;2022-07-10T11:10:37;23.90;52.10
15543;DHT22;7873;52.230;12.856;2022-07-10T11:13:05;23.90;51.70
15543;DHT22;7873;52.230;12.856;2022-07-10T11:15:34;24.00;53.50
15543;DHT22;7873;52.230;12.856;2022-07-10T11:18:03;24.20;53.10
15543;DHT22;7873;52.230;12.856;2022-07-10T11:20:34;24.30;53.10
15543;DHT22;7873;52.230;12.856;2022-07-10T11:23:06;24.30;52.70
15543;DHT22;7873;52.230;12.856;2022-07-10T11:25:42;24.40;52.60
15543;DHT22;7873;52.230;12.856;2022-07-10T11:28:25;24.30;53.50
15543;DHT22;7873;52.230;12.856;2022-07-10T11:31:03;24.30;53.40
15543;DHT22;7873;52.230;12.856;2022-07-10T11:33:30;24.40;53.50
15543;DHT22;7873;52.230;12.856;2022-07-10T11:36:09;24.40;53.60
15543;DHT22;7873;52.230;12.856;2022-07-10T11:38:39;24.40;53.60
15543;DHT22;7873;52.230;12.856;2022-07-10T11:41:16;24.40;53.90
15543;DHT22;7873;52.230;12.856;2022-07-10T11:43:48;24.50;54.00
15543;DHT22;7873;52.230;12.856;2022-07-10T11:46:15;24.50;54.20
15543;DHT22;7873;52.230;12.856;2022-07-10T11:48:42;24.60;54.00
15543;DHT22;7873;52.230;12.856;2022-07-10T11:51:17;24.50;54.40
15543;DHT22;7873;52.230;12.856;2022-07-10T11:53:57;24.60;54.20
15543;DHT22;7873;52.230;12.856;2022-07-10T11:56:25;24.70;54.20
15543;DHT22;7873;52.230;12.856;2022-07-10T11:58:57;24.70;54.20
15543;DHT22;7873;52.230;12.856;2022-07-10T12:01:25;24.60;54.60
15543;DHT22;7873;52.230;12.856;2022-07-10T12:03:57;24.60;54.60
15543;DHT22;7873;52.230;12.856;2022-07-10T12:06:25;24.60;54.90
15543;DHT22;7873;52.230;12.856;2022-07-10T12:08:53;24.60;54.30
15543;DHT22;7873;52.230;12.856;2022-07-10T12:11:22;24.50;54.00
15543;DHT22;7873;52.230;12.856;2022-07-10T12:13:50;24.70;52.60
15543;DHT22;7873;52.230;12.856;2022-07-10T12:16:19;24.80;52.40
15543;DHT22;7873;52.230;12.856;2022-07-10T12:18:46;24.80;52.40
15543;DHT22;7873;52.230;12.856;2022-07-10T12:21:14;24.70;52.30
15543;DHT22;7873;52.230;12.856;2022-07-10T12:23:42;24.50;51.60
15543;DHT22;7873;52.230;12.856;2022-07-10T12:26:11;24.60;50.90
15543;DHT22;7873;52.230;12.856;2022-07-10T12:28:50;24.60;49.70
15543;DHT22;7873;52.230;12.856;2022-07-10T12:31:21;24.50;50.20
15543;DHT22;7873;52.230;12.856;2022-07-10T12:33:53;24.40;50.50
15543;DHT22;7873;52.230;12.856;2022-07-10T12:36:23;24.30;45.60
15543;DHT22;7873;52.230;12.856;2022-07-10T12:38:53;24.10;46.40
15543;DHT22;7873;52.230;12.856;2022-07-10T12:41:23;24.30;45.20
15543;DHT22;7873;52.230;12.856;2022-07-10T12:43:52;24.30;45.10
15543;DHT22;7873;52.230;12.856;2022-07-10T12:46:20;24.40;44.30
15543;DHT22;7873;52.230;12.856;2022-07-10T12:49:01;24.40;44.70
15543;DHT22;7873;52.230;12.856;2022-07-10T12:51:32;24.30;45.20
15543;DHT22;7873;52.230;12.856;2022-07-10T12:54:00;24.40;45.70
15543;DHT22;7873;52.230;12.856;2022-07-10T12:56:28;24.30;44.10
15543;DHT22;7873;52.230;12.856;2022-07-10T12:58:57;24.00;43.80
15543;DHT22;7873;52.230;12.856;2022-07-10T13:01:25;23.80;43.00
15543;DHT22;7873;52.230;12.856;2022-07-10T13:03:59;23.70;42.60
15543;DHT22;7873;52.230;12.856;2022-07-10T13:06:28;23.50;41.70
15543;DHT22;7873;52.230;12.856;2022-07-10T13:08:55;23.60;42.40
15543;DHT22;7873;52.230;12.856;2022-07-10T13:11:22;23.60;42.60
15543;DHT22;7873;52.230;12.856;2022-07-10T13:13:50;23.60;41.30
15543;DHT22;7873;52.230;12.856;2022-07-10T13:16:18;23.50;41.50
15543;DHT22;7873;52.230;12.856;2022-07-10T13:18:45;23.60;42.10
15543;DHT22;7873;52.230;12.856;2022-07-10T13:21:11;23.40;42.40
15543;DHT22;7873;52.230;12.856;2022-07-10T13:23:38;23.40;40.70
15543;DHT22;7873;52.230;12.856;2022-07-10T13:26:05;23.40;41.00
15543;DHT22;7873;52.230;12.856;2022-07-10T13:28:33;23.50;41.70
15543;DHT22;7873;52.230;12.856;2022-07-10T13:31:00;23.50;41.10
15543;DHT22;7873;52.230;12.856;2022-07-10T13:33:28;23.50;42.50
15543;DHT22;7873;52.230;12.856;2022-07-10T13:35:58;23.50;40.90
15543;DHT22;7873;52.230;12.856;2022-07-10T13:38:26;23.40;39.80
15543;DHT22;7873;52.230;12.856;2022-07-10T13:40:52;23.30;39.70
15543;DHT22;7873;52.230;12.856;2022-07-10T13:43:19;23.40;40.30
15543;DHT22;7873;52.230;12.856;2022-07-10T13:45:46;23.40;40.10
15543;DHT22;7873;52.230;12.856;2022-07-10T13:48:14;23.40;40.70
15543;DHT22;7873;52.230;12.856;2022-07-10T13:50:43;23.50;40.70
15543;DHT22;7873;52.230;12.856;2022-07-10T13:53:12;23.50;41.10
15543;DHT22;7873;52.230;12.856;2022-07-10T13:55:39;23.50;41.10
15543;DHT22;7873;52.230;12.856;2022-07-10T13:58:06;23.50;40.30
15543;DHT22;7873;52.230;12.856;2022-07-10T14:00:34;23.40;40.90
15543;DHT22;7873;52.230;12.856;2022-07-10T14:03:01;23.50;41.50
15543;DHT22;7873;52.230;12.856;2022-07-10T14:05:28;23.60;41.20
15543;DHT22;7873;52.230;12.856;2022-07-10T14:07:56;23.60;40.70
15543;DHT22;7873;52.230;12.856;2022-07-10T14:10:23;23.60;40.80
15543;DHT22;7873;52.230;12.856;2022-07-10T14:12:50;23.40;40.20
15543;DHT22;7873;52.230;12.856;2022-07-10T14:15:17;23.30;40.70
15543;DHT22;7873;52.230;12.856;2022-07-10T14:17:44;23.40;40.80
15543;DHT22;7873;52.230;12.856;2022-07-10T14:20:11;23.50;41.20
15543;DHT22;7873;52.230;12.856;2022-07-10T14:22:38;23.50;40.60
15543;DHT22;7873;52.230;12.856;2022-07-10T14:25:08;23.40;40.90
15543;DHT22;7873;52.230;12.856;2022-07-10T14:27:35;23.20;41.40
15543;DHT22;7873;52.230;12.856;2022-07-10T14:30:01;23.10;41.70
15543;DHT22;7873;52.230;12.856;2022-07-10T14:32:28;23.10;41.80
15543;DHT22;7873;52.230;12.856;2022-07-10T14:34:55;23.10;40.40
15543;DHT22;7873;52.230;12.856;2022-07-10T14:37:22;23.10;40.40
15543;DHT22;7873;52.230;12.856;2022-07-10T14:39:49;23.20;41.10
15543;DHT22;7873;52.230;12.856;2022-07-10T14:42:17;23.20;40.60
15543;DHT22;7873;52.230;12.856;2022-07-10T14:44:44;23.40;40.10
15543;DHT22;7873;52.230;12.856;2022-07-10T14:47:11;23.30;41.20
15543;DHT22;7873;52.230;12.856;2022-07-10T14:49:39;23.30;40.50
15543;DHT22;7873;52.230;12.856;2022-07-10T14:52:06;23.40;41.40
15543;DHT22;7873;52.230;12.856;2022-07-10T14:54:33;23.20;40.40
15543;DHT22;7873;52.230;12.856;2022-07-10T14:56:59;23.30;41.50
15543;DHT22;7873;52.230;12.856;2022-07-10T14:59:27;23.40;40.60
15543;DHT22;7873;52.230;12.856;2022-07-10T15:01:54;23.40;42.10
15543;DHT22;7873;52.230;12.856;2022-07-10T15:04:21;23.50;42.10
15543;DHT22;7873;52.230;12.856;2022-07-10T15:06:47;23.50;41.20
15543;DHT22;7873;52.230;12.856;2022-07-10T15:09:14;23.40;41.10
15543;DHT22;7873;52.230;12.856;2022-07-10T15:11:41;23.50;41.40
15543;DHT22;7873;52.230;12.856;2022-07-10T15:14:07;23.70;41.20
15543;DHT22;7873;52.230;12.856;2022-07-10T15:16:35;23.50;40.60
15543;DHT22;7873;52.230;12.856;2022-07-10T15:19:02;23.50;41.70
15543;DHT22;7873;52.230;12.856;2022-07-10T15:21:29;23.50;40.60
15543;DHT22;7873;52.230;12.856;2022-07-10T15:23:57;23.50;40.20
15543;DHT22;7873;52.230;12.856;2022-07-10T15:26:23;23.60;42.10
15543;DHT22;7873;52.230;12.856;2022-07-10T15:28:50;23.60;41.70
15543;DHT22;7873;52.230;12.856;2022-07-10T15:31:17;23.60;41.20
15543;DHT22;7873;52.230;12.856;2022-07-10T15:33:45;23.60;41.60
15543;DHT22;7873;52.230;12.856;2022-07-10T15:36:11;23.50;41.30
15543;DHT22;7873;52.230;12.856;2022-07-10T15:38:38;23.50;41.90
15543;DHT22;7873;52.230;12.856;2022-07-10T15:41:05;23.70;42.10
15543;DHT22;7873;52.230;12.856;2022-07-10T15:43:32;23.70;42.80